Time;durP1;ratioP1;P1;durP2;ratioP2;P2;SDS_P1;SDS_P2;PMS_P1;PMS_P2;Temp;Humidity;BMP_temperature;BMP_pressure;BME280_temperature;BME280_humidity;BME280_pressure;Samples;Min_cycle;Max_cycle;Signal;HPM_P1;HPM_P2
2021/11/08 00:00:16;;;;;;;20.73;3.65;;;8.00;99.90;;;;;;6759515;88;20184;-78
2021/11/08 00:10:17;;;;;;;16.98;3.10;;;8.10;99.90;;;;;;6758171;88;20189;-79
2021/11/08 00:20:23;;;;;;;11.95;2.50;;;8.10;99.90;;;;;;6753699;88;20195;-78
2021/11/08 00:30:24;;;;;;;15.60;2.55;;;8.10;99.90;;;;;;6753093;88;20198;-78
2021/11/08 00:40:24;;;;;;;13.13;3.00;;;8.30;99.90;;;;;;6757549;88;20212;-78
2021/11/08 00:50:25;;;;;;;17.33;2.60;;;8.20;99.90;;;;;;6757454;88;20219;-78
2021/11/08 01:01:08;;;;;;;13.13;2.97;;;8.30;99.90;;;;;;6784322;76;21171;-79
2021/11/08 01:11:09;;;;;;;12.20;3.03;;;8.20;99.90;;;;;;6775339;88;20208;-79
2021/11/08 01:21:10;;;;;;;15.25;2.60;;;8.20;99.90;;;;;;6779977;88;20239;-78
2021/11/08 01:31:11;;;;;;;11.68;2.70;;;8.30;99.90;;;;;;6780311;88;20187;-81
2021/11/08 01:41:14;;;;;;;11.38;2.15;;;8.10;99.90;;;;;;6779267;88;20188;-79
2021/11/08 01:51:16;;;;;;;11.73;2.60;;;8.10;99.90;;;;;;6777245;88;20719;-80
2021/11/08 02:01:17;;;;;;;11.85;2.45;;;7.90;99.90;;;;;;6772480;88;20186;-79
2021/11/08 02:11:20;;;;;;;11.48;2.58;;;7.70;99.90;;;;;;6776827;88;20222;-80
2021/11/08 02:21:21;;;;;;;16.25;2.72;;;7.60;99.90;;;;;;6774842;88;20749;-79
2021/11/08 02:31:23;;;;;;;12.07;2.70;;;7.40;99.90;;;;;;6774473;88;20191;-81
2021/11/08 02:41:25;;;;;;;15.93;2.78;;;7.50;99.90;;;;;;6778676;88;20319;-80
2021/11/08 02:51:28;;;;;;;12.18;2.60;;;7.70;99.90;;;;;;6760442;88;20201;-81
2021/11/08 03:01:29;;;;;;;13.07;2.70;;;7.80;99.90;;;;;;6775060;87;20888;-80
2021/11/08 03:11:30;;;;;;;16.65;3.08;;;7.90;99.90;;;;;;6779790;88;20191;-80
2021/11/08 03:21:31;;;;;;;15.32;2.90;;;7.90;99.90;;;;;;6766121;88;20189;-81
2021/11/08 03:31:34;;;;;;;14.25;3.05;;;7.90;99.90;;;;;;6778412;87;20210;-81
2021/11/08 03:41:35;;;;;;;15.65;3.30;;;8.00;99.90;;;;;;6772994;88;20696;-80
2021/11/08 03:51:37;;;;;;;18.75;2.60;;;8.00;99.90;;;;;;6775826;88;20207;-79
2021/11/08 04:01:38;;;;;;;23.12;5.05;;;8.10;99.90;;;;;;6775375;87;20177;-81
2021/11/08 04:11:40;;;;;;;14.65;3.47;;;8.30;99.90;;;;;;6774828;88;20729;-82
2021/11/08 04:21:42;;;;;;;16.05;3.80;;;8.10;99.90;;;;;;6779732;88;20197;-81
2021/11/08 04:31:43;;;;;;;16.17;3.72;;;8.10;99.90;;;;;;6778643;88;20165;-80
2021/11/08 04:52:14;;;;;;;18.00;4.25;;;8.20;99.90;;;;;;6774590;88;20180;-80
2021/11/08 05:23:19;;;;;;;11.82;4.32;;;8.30;99.90;;;;;;6774052;87;20311;-81
2021/11/08 05:33:20;;;;;;;14.77;4.45;;;8.20;99.90;;;;;;6776457;87;20990;-80
2021/11/08 05:43:20;;;;;;;12.88;4.47;;;8.10;99.90;;;;;;6778286;87;20183;-81
2021/11/08 05:53:21;;;;;;;19.87;4.78;;;8.20;99.90;;;;;;6780911;87;20247;-80
2021/11/08 06:55:01;;;;;;;19.37;5.70;;;8.50;99.90;;;;;;6773436;87;20572;-80
2021/11/08 07:05:02;;;;;;;19.25;5.20;;;8.40;99.90;;;;;;6784341;87;20198;-79
2021/11/08 07:15:24;;;;;;;15.82;5.25;;;8.40;99.90;;;;;;6766199;77;20204;-77
2021/11/08 07:25:28;;;;;;;23.20;6.47;;;8.30;99.90;;;;;;6770310;87;20180;-79
2021/11/08 07:35:28;;;;;;;17.52;5.05;;;8.30;99.90;;;;;;6761500;88;20356;-79
2021/11/08 07:45:29;;;;;;;12.90;4.40;;;8.60;99.90;;;;;;6764948;88;20200;-79
2021/11/08 07:55:30;;;;;;;20.83;5.57;;;8.70;99.90;;;;;;6764355;88;20541;-80
2021/11/08 08:05:33;;;;;;;17.57;4.80;;;8.80;99.90;;;;;;6770508;88;20540;-80
2021/11/08 08:15:34;;;;;;;13.27;4.35;;;8.90;99.90;;;;;;6770831;88;21287;-81
2021/11/08 08:25:35;;;;;;;19.75;4.35;;;9.00;99.90;;;;;;6770579;88;20363;-80
2021/11/08 08:35:42;;;;;;;12.98;3.70;;;9.00;99.90;;;;;;6765812;88;20208;-80
2021/11/08 08:45:42;;;;;;;14.10;4.35;;;9.10;99.90;;;;;;6766459;88;20251;-79
2021/11/08 08:55:44;;;;;;;16.42;4.85;;;9.40;99.90;;;;;;6767445;88;20281;-80
2021/11/08 09:05:46;;;;;;;18.62;4.55;;;9.30;99.90;;;;;;6768505;88;20619;-81
2021/11/08 09:15:48;;;;;;;18.77;4.95;;;9.70;99.90;;;;;;6770515;88;20204;-79
2021/11/08 09:25:48;;;;;;;16.12;4.40;;;9.90;99.90;;;;;;6769815;88;20183;-80
2021/11/08 09:35:51;;;;;;;17.12;5.10;;;10.20;99.90;;;;;;6771970;88;20193;-80
2021/11/08 09:45:52;;;;;;;13.68;4.30;;;10.60;99.90;;;;;;6768038;88;20239;-80
2021/11/08 09:55:52;;;;;;;15.02;4.07;;;11.00;99.90;;;;;;6734600;88;20296;-81
2021/11/08 10:05:56;;;;;;;18.50;5.67;;;11.50;99.90;;;;;;6758939;88;20659;-80
2021/11/08 10:16:00;;;;;;;20.58;4.50;;;11.70;99.90;;;;;;6766371;88;20187;-81
2021/11/08 10:26:06;;;;;;;18.67;4.07;;;12.00;99.90;;;;;;6770921;88;20203;-80
2021/11/08 10:36:16;;;;;;;16.05;4.07;;;11.70;99.90;;;;;;6770383;88;20183;-81
2021/11/08 10:46:27;;;;;;;15.18;3.50;;;11.80;99.90;;;;;;6774221;88;20257;-80
2021/11/08 10:56:32;;;;;;;23.92;4.45;;;11.80;99.90;;;;;;6769787;88;20176;-79
2021/11/08 11:06:40;;;;;;;13.62;3.80;;;11.90;99.90;;;;;;6769594;88;20220;-80
2021/11/08 11:16:49;;;;;;;16.20;3.53;;;11.90;99.90;;;;;;6732332;88;20230;-81
2021/11/08 11:26:51;;;;;;;12.93;3.55;;;12.20;99.90;;;;;;6734666;88;20724;-80
2021/11/08 11:36:52;;;;;;;18.70;3.50;;;12.10;99.90;;;;;;6768948;88;20160;-80
2021/11/08 11:46:55;;;;;;;17.73;3.65;;;12.60;99.90;;;;;;6769676;88;20297;-79
2021/11/08 11:56:57;;;;;;;14.02;3.08;;;12.40;99.90;;;;;;6766244;88;20620;-81
2021/11/08 12:07:02;;;;;;;14.40;3.08;;;12.60;99.90;;;;;;6769637;88;20189;-80
2021/11/08 12:17:19;;;;;;;13.77;2.93;;;12.80;99.90;;;;;;6770208;88;20686;-80
2021/11/08 12:27:20;;;;;;;14.85;2.92;;;14.60;99.90;;;;;;6769100;87;20204;-80
2021/11/08 12:37:33;;;;;;;14.40;3.13;;;15.90;99.90;;;;;;6766055;88;20192;-81
2021/11/08 12:47:33;;;;;;;16.55;3.20;;;17.00;99.90;;;;;;6766775;88;20622;-81
2021/11/08 12:57:35;;;;;;;19.87;3.28;;;15.40;99.90;;;;;;6768528;88;20304;-80
2021/11/08 13:07:40;;;;;;;22.40;3.03;;;14.40;99.90;;;;;;6767481;88;20308;-81
2021/11/08 13:17:46;;;;;;;12.35;2.60;;;14.40;99.90;;;;;;6767331;88;20201;-82
2021/11/08 13:27:50;;;;;;;11.43;2.40;;;17.20;99.90;;;;;;6765016;88;20188;-83
2021/11/08 13:38:09;;;;;;;11.27;3.00;;;19.10;97.50;;;;;;6765536;88;20201;-83
2021/11/08 13:48:19;;;;;;;14.60;3.10;;;19.80;96.10;;;;;;6765874;88;20213;-81
2021/11/08 14:09:23;;;;;;;17.80;3.75;;;17.50;98.50;;;;;;6760635;88;20180;-80
2021/11/08 14:19:24;;;;;;;20.50;3.37;;;15.90;99.90;;;;;;6759199;88;20665;-79
2021/11/08 14:29:27;;;;;;;18.95;3.30;;;15.00;99.90;;;;;;6758992;88;20221;-79
2021/11/08 14:39:29;;;;;;;15.65;3.47;;;14.70;99.90;;;;;;6771556;88;20286;-81
2021/11/08 14:49:30;;;;;;;16.87;3.37;;;14.30;99.90;;;;;;6777769;88;20195;-80
2021/11/08 14:59:34;;;;;;;17.77;3.10;;;14.30;99.90;;;;;;6778007;87;20196;-80
2021/11/08 15:09:41;;;;;;;18.80;3.72;;;14.10;99.90;;;;;;6777258;88;20203;-81
2021/11/08 15:19:46;;;;;;;13.05;3.30;;;13.50;99.90;;;;;;6775586;88;20187;-81
2021/11/08 15:29:47;;;;;;;14.97;2.90;;;13.10;99.90;;;;;;6770891;88;20160;-81
2021/11/08 15:39:48;;;;;;;19.02;3.90;;;12.70;99.90;;;;;;6774729;88;20627;-81
2021/11/08 15:49:48;;;;;;;16.17;3.33;;;12.50;99.90;;;;;;6774826;88;20671;-81
2021/11/08 15:59:52;;;;;;;13.00;3.10;;;12.30;99.90;;;;;;6775515;88;20504;-81
2021/11/08 16:09:52;;;;;;;13.38;3.08;;;11.90;99.90;;;;;;6769878;88;20187;-81
2021/11/08 16:19:53;;;;;;;14.10;2.87;;;11.70;99.90;;;;;;6773434;88;20209;-79
2021/11/08 16:29:54;;;;;;;14.50;3.33;;;11.50;99.90;;;;;;6769878;88;20177;-80
2021/11/08 16:39:54;;;;;;;20.30;3.47;;;11.20;99.90;;;;;;6752128;88;20204;-80
2021/11/08 16:49:55;;;;;;;14.27;3.33;;;10.90;99.90;;;;;;6755875;88;20197;-78
2021/11/08 16:59:57;;;;;;;15.15;3.33;;;10.90;99.90;;;;;;6749552;88;20213;-78
2021/11/08 17:20:00;;;;;;;20.08;3.72;;;10.80;99.90;;;;;;6755532;88;20193;-80
2021/11/08 17:30:03;;;;;;;15.07;3.30;;;10.60;99.90;;;;;;6753885;88;20710;-78
2021/11/08 17:40:07;;;;;;;14.65;3.22;;;10.70;99.90;;;;;;6755043;88;20172;-78
2021/11/08 17:50:10;;;;;;;16.73;3.25;;;10.60;99.90;;;;;;6748699;88;20206;-77
2021/11/08 18:00:12;;;;;;;15.95;4.10;;;10.70;99.90;;;;;;6754604;88;20376;-78
2021/11/08 18:10:15;;;;;;;12.20;3.60;;;10.70;99.90;;;;;;6756219;88;20266;-78
2021/11/08 18:20:29;;;;;;;15.90;3.78;;;10.50;99.90;;;;;;6751596;88;20195;-79
2021/11/08 18:30:31;;;;;;;12.93;3.60;;;10.50;99.90;;;;;;6765328;88;20195;-79
2021/11/08 18:40:33;;;;;;;13.95;4.00;;;10.50;99.90;;;;;;6764746;88;20191;-78
2021/11/08 18:50:35;;;;;;;12.60;3.95;;;10.50;99.90;;;;;;6752570;88;20633;-77
2021/11/08 19:00:38;;;;;;;16.70;3.85;;;10.50;99.90;;;;;;6751688;88;20322;-78
2021/11/08 19:10:39;;;;;;;20.08;4.35;;;10.10;99.90;;;;;;6759280;88;20212;-80
2021/11/08 19:20:40;;;;;;;20.10;5.82;;;10.10;99.90;;;;;;6758350;88;20322;-78
2021/11/08 19:30:44;;;;;;;18.02;4.12;;;10.20;99.90;;;;;;6754373;87;20206;-79
2021/11/08 19:40:47;;;;;;;20.25;4.18;;;10.20;99.90;;;;;;6755335;88;20222;-81
2021/11/08 19:50:49;;;;;;;17.67;4.57;;;10.00;99.90;;;;;;6758387;88;20296;-79
2021/11/08 20:01:30;;;;;;;13.65;3.70;;;9.90;99.90;;;;;;6740193;77;20207;-78
2021/11/08 20:11:33;;;;;;;18.55;4.05;;;10.00;99.90;;;;;;6638240;88;20200;-81
2021/11/08 20:21:34;;;;;;;15.15;3.55;;;9.90;99.90;;;;;;6685060;88;20207;-79
2021/11/08 20:42:03;;;;;;;17.55;5.53;;;9.80;99.90;;;;;;6622759;89;20182;-81
2021/11/08 21:02:14;;;;;;;16.85;4.90;;;9.50;99.90;;;;;;6705534;88;20236;-79
2021/11/08 21:12:34;;;;;;;20.02;5.32;;;9.40;99.90;;;;;;6711447;88;20199;-81
2021/11/08 21:22:35;;;;;;;16.42;4.40;;;9.50;99.90;;;;;;6730579;88;20277;-79
2021/11/08 21:43:03;;;;;;;17.58;5.10;;;9.60;99.90;;;;;;6653542;88;20653;-79
2021/11/08 21:53:04;;;;;;;16.70;3.97;;;9.50;99.90;;;;;;6722811;88;20646;-79
2021/11/08 22:03:05;;;;;;;22.87;5.03;;;9.40;99.90;;;;;;6728759;88;20201;-79
2021/11/08 22:13:06;;;;;;;22.20;5.53;;;9.10;99.90;;;;;;6732325;88;20247;-78
2021/11/08 22:23:11;;;;;;;18.35;5.03;;;9.10;99.90;;;;;;6733082;88;20290;-79
2021/11/08 22:33:12;;;;;;;19.90;5.12;;;9.10;99.90;;;;;;6725638;88;20221;-79
2021/11/08 22:43:14;;;;;;;19.62;4.90;;;9.10;99.90;;;;;;6711949;88;20187;-79
2021/11/08 22:53:15;;;;;;;22.58;4.90;;;9.00;99.90;;;;;;6713003;88;20173;-80
2021/11/08 23:03:16;;;;;;;14.75;5.12;;;8.90;99.90;;;;;;6711594;88;20234;-80
2021/11/08 23:13:19;;;;;;;22.48;5.37;;;9.00;99.90;;;;;;6708060;88;20313;-79
2021/11/08 23:23:21;;;;;;;16.40;5.25;;;8.80;99.90;;;;;;6691366;88;20209;-79
2021/11/08 23:33:21;;;;;;;21.25;5.40;;;9.00;99.90;;;;;;6712821;88;20217;-79
2021/11/08 23:43:22;;;;;;;12.37;4.40;;;8.90;99.90;;;;;;6714785;88;20203;-80
2021/11/08 23:53:23;;;;;;;16.45;5.37;;;8.90;99.90;;;;;;6714611;88;20511;-78
